Time;durP1;ratioP1;P1;durP2;ratioP2;P2;SDS_P1;SDS_P2;PMS_P1;PMS_P2;Temp;Humidity;BMP_temperature;BMP_pressure;BME280_temperature;BME280_humidity;BME280_pressure;Samples;Min_cycle;Max_cycle;Signal;HPM_P1;HPM_P2
2022/12/17 13:08:19;;;;;;;27.67;13.40;;;-2.50;99.90;;;-2.76;70.37;100915.19;4965098;28;20197;-72
2022/12/17 13:10:49;;;;;;;30.97;14.10;;;-2.50;99.90;;;-2.79;70.82;100914.16;4976107;28;20205;-71
2022/12/17 13:13:30;;;;;;;30.63;14.73;;;-2.60;99.90;;;-2.84;70.74;100918.03;4978742;28;20213;-72
2022/12/17 13:16:04;;;;;;;33.57;15.20;;;-2.60;99.90;;;-2.84;70.98;100915.53;4968051;28;20268;-71
2022/12/17 13:18:38;;;;;;;30.33;14.67;;;-2.60;99.90;;;-2.85;70.86;100913.78;4976911;28;20236;-71
2022/12/17 13:24:11;;;;;;;30.00;15.23;;;-2.70;99.90;;;-2.83;70.95;100920.69;5135242;27;20574;-71
2022/12/17 13:26:44;;;;;;;30.27;15.03;;;-2.70;99.90;;;-2.87;70.98;100922.91;5110130;28;20697;-71
2022/12/17 13:29:24;;;;;;;30.13;14.77;;;-2.70;99.90;;;-2.87;70.51;100922.91;5114213;28;20222;-71
2022/12/17 13:32:12;;;;;;;26.20;13.73;;;-2.70;99.90;;;-2.86;71.05;100927.19;5114653;28;20213;-73
2022/12/17 13:34:57;;;;;;;32.60;15.77;;;-2.70;99.90;;;-2.86;70.92;100932.25;5111917;28;20200;-73
2022/12/17 13:37:37;;;;;;;33.93;16.20;;;-2.70;99.90;;;-2.89;70.81;100937.97;5113592;28;21626;-72
2022/12/17 13:40:25;;;;;;;34.90;17.13;;;-2.70;99.90;;;-2.95;71.36;100927.53;5117883;28;20221;-73
2022/12/17 13:42:54;;;;;;;34.17;17.03;;;-2.70;99.90;;;-2.97;70.71;100932.50;5103417;28;20277;-73
2022/12/17 13:45:25;;;;;;;33.47;16.40;;;-2.80;99.90;;;-2.98;71.10;100930.75;5106100;28;20250;-74
2022/12/17 13:47:55;;;;;;;34.37;17.40;;;-2.80;99.90;;;-2.98;70.80;100928.25;5119243;28;20200;-71
2022/12/17 13:50:26;;;;;;;34.43;16.80;;;-2.80;99.90;;;-2.99;71.02;100933.19;5111002;28;20235;-73
2022/12/17 13:53:11;;;;;;;33.20;17.27;;;-2.80;99.90;;;-3.04;70.93;100937.97;5110934;28;20207;-71
2022/12/17 13:55:41;;;;;;;39.77;19.03;;;-2.80;99.90;;;-3.04;70.76;100937.09;5110659;28;20202;-72
2022/12/17 13:58:25;;;;;;;34.70;17.87;;;-2.90;99.90;;;-3.05;70.93;100942.94;5099997;28;20204;-72
2022/12/17 14:01:09;;;;;;;35.53;17.47;;;-2.90;99.90;;;-3.10;71.25;100947.69;5120281;28;20259;-72
2022/12/17 14:03:38;;;;;;;28.40;14.93;;;-2.90;99.90;;;-3.14;71.02;100950.81;5106863;28;20216;-71
2022/12/17 14:06:33;;;;;;;32.30;16.63;;;-3.00;99.90;;;-3.18;71.25;100957.31;5098796;28;20227;-71
2022/12/17 14:09:02;;;;;;;32.93;15.80;;;-3.00;99.90;;;-3.19;71.22;100958.13;5107552;28;20257;-71
2022/12/17 14:14:29;;;;;;;32.60;15.43;;;-3.00;99.90;;;-3.24;70.71;100973.75;5107582;28;20216;-71
2022/12/17 14:16:58;;;;;;;31.63;16.50;;;-3.10;99.90;;;-3.27;70.65;100973.59;5104894;28;20281;-70
2022/12/17 14:19:28;;;;;;;34.10;16.07;;;-3.10;99.90;;;-3.30;71.08;100971.75;5110358;28;20203;-72
2022/12/17 14:21:57;;;;;;;31.70;14.93;;;-3.10;99.90;;;-3.30;70.85;100978.44;5097748;28;20315;-71
2022/12/17 14:24:28;;;;;;;30.17;15.17;;;-3.10;99.90;;;-3.32;71.20;100987.53;5097437;28;20664;-71
2022/12/17 14:27:00;;;;;;;30.77;16.17;;;-3.10;99.90;;;-3.37;71.37;100992.31;5100353;28;20200;-71
2022/12/17 14:29:32;;;;;;;32.57;16.57;;;-3.20;99.90;;;-3.39;71.52;101001.41;5094278;28;20200;-72
2022/12/17 14:32:02;;;;;;;29.97;15.00;;;-3.20;99.90;;;-3.40;70.90;101004.72;5096620;28;20252;-73
2022/12/17 14:34:41;;;;;;;31.97;15.50;;;-3.20;99.90;;;-3.46;71.19;101009.38;5111314;28;20260;-71
2022/12/17 14:37:21;;;;;;;30.20;15.00;;;-3.20;99.90;;;-3.51;71.48;101009.13;5111561;28;20176;-68
2022/12/17 14:39:50;;;;;;;29.70;14.53;;;-3.30;99.90;;;-3.53;71.56;101018.25;5101190;28;20206;-69
2022/12/17 14:42:28;;;;;;;37.30;19.45;;;-3.30;99.90;;;-3.53;71.68;101017.38;5106234;28;20432;-69
2022/12/17 14:45:00;;;;;;;33.37;15.80;;;-3.30;99.90;;;-3.52;71.54;101019.13;5109570;28;20188;-69
2022/12/17 14:47:30;;;;;;;31.27;15.50;;;-3.30;99.90;;;-3.50;71.58;101013.41;5113309;28;20194;-69
2022/12/17 14:50:04;;;;;;;33.30;15.17;;;-3.30;99.90;;;-3.46;71.37;101011.91;5110449;28;20205;-68
2022/12/17 14:52:43;;;;;;;33.33;16.10;;;-3.30;99.90;;;-3.47;71.37;101011.03;5107756;28;20193;-70
2022/12/17 14:55:52;;;;;;;33.07;15.23;;;-3.30;99.90;;;-3.53;71.14;101018.25;5113403;28;20189;-69
2022/12/17 14:58:26;;;;;;;39.40;21.05;;;-3.30;99.90;;;-3.60;71.29;101022.81;5049693;28;20474;-71
2022/12/17 15:00:59;;;;;;;33.30;18.25;;;-3.30;99.90;;;-3.66;71.54;101024.19;5089513;28;20447;-69
2022/12/17 15:03:32;;;;;;;36.30;15.77;;;-3.50;99.90;;;-3.65;71.25;101032.59;5109083;28;20451;-70
2022/12/17 15:06:04;;;;;;;29.83;16.00;;;-3.50;99.90;;;-3.68;71.38;101023.22;5115629;28;20201;-70
2022/12/17 15:08:35;;;;;;;29.00;15.27;;;-3.50;99.90;;;-3.70;71.21;101037.34;5108281;28;20204;-75
2022/12/17 15:11:05;;;;;;;32.53;15.60;;;-3.50;99.90;;;-3.70;71.10;101039.00;5097352;27;20676;-71
2022/12/17 15:13:35;;;;;;;32.30;15.97;;;-3.50;99.90;;;-3.71;71.33;101034.75;5089059;28;20237;-71
2022/12/17 15:16:05;;;;;;;34.07;16.40;;;-3.50;99.90;;;-3.68;71.59;101045.03;5091205;28;20197;-71
2022/12/17 15:18:33;;;;;;;34.37;15.93;;;-3.50;99.90;;;-3.68;71.58;101045.91;5088012;28;20197;-73
2022/12/17 15:21:03;;;;;;;33.43;15.17;;;-3.50;99.90;;;-3.66;71.29;101046.84;5080386;28;20202;-72
2022/12/17 15:23:32;;;;;;;32.23;15.47;;;-3.50;99.90;;;-3.65;71.05;101052.75;5083912;28;20247;-71
2022/12/17 15:26:00;;;;;;;39.33;17.95;;;-3.50;99.90;;;-3.66;71.27;101056.03;5094831;28;20463;-70
2022/12/17 15:28:29;;;;;;;31.70;15.20;;;-3.50;99.90;;;-3.67;70.99;101061.88;5098518;28;20232;-70
2022/12/17 15:30:58;;;;;;;33.67;15.90;;;-3.50;99.90;;;-3.66;71.33;101066.13;5105353;28;20193;-70
2022/12/17 15:33:27;;;;;;;26.23;14.23;;;-3.50;99.90;;;-3.70;71.03;101064.19;5089218;28;20228;-71
2022/12/17 15:35:55;;;;;;;36.57;16.63;;;-3.50;99.90;;;-3.71;71.20;101059.94;5103576;28;20200;-68
2022/12/17 15:38:23;;;;;;;35.80;17.70;;;-3.50;99.90;;;-3.70;71.26;101062.53;5111724;28;20231;-68
2022/12/17 15:40:52;;;;;;;35.80;16.37;;;-3.50;99.90;;;-3.69;71.10;101063.41;5107510;28;20223;-69
2022/12/17 15:43:19;;;;;;;33.03;15.33;;;-3.50;99.90;;;-3.69;71.33;101066.78;5093616;28;20307;-69
2022/12/17 15:45:51;;;;;;;34.00;16.57;;;-3.50;99.90;;;-3.69;70.76;101069.31;5090898;28;20235;-69
2022/12/17 15:48:23;;;;;;;36.20;16.53;;;-3.50;99.90;;;-3.71;70.74;101077.56;5096983;28;20209;-69
2022/12/17 15:50:54;;;;;;;32.60;16.27;;;-3.50;99.90;;;-3.72;71.17;101085.88;5103016;28;20224;-70
2022/12/17 15:53:23;;;;;;;39.73;16.37;;;-3.60;99.90;;;-3.77;70.63;101085.59;5092583;28;20206;-70
2022/12/17 15:55:58;;;;;;;36.53;16.53;;;-3.70;99.90;;;-3.80;71.06;101087.91;5086212;28;20266;-70
2022/12/17 15:58:26;;;;;;;40.70;18.57;;;-3.60;99.90;;;-3.81;71.19;101090.34;5088854;28;20591;-69
2022/12/17 16:00:55;;;;;;;36.10;17.67;;;-3.60;99.90;;;-3.77;71.43;101094.81;5095695;28;20228;-70
2022/12/17 16:03:25;;;;;;;38.90;18.30;;;-3.60;99.90;;;-3.81;71.43;101092.88;5096199;28;20647;-70
2022/12/17 16:05:53;;;;;;;37.93;18.13;;;-3.60;99.90;;;-3.83;71.03;101097.78;5091976;28;20214;-71
2022/12/17 16:08:22;;;;;;;42.83;18.43;;;-3.60;99.90;;;-3.84;71.56;101102.75;5092695;28;20208;-71
2022/12/17 16:10:50;;;;;;;38.50;17.87;;;-3.60;99.90;;;-3.85;71.42;101101.88;5095075;28;20289;-72
2022/12/17 16:13:24;;;;;;;32.40;17.77;;;-3.70;99.90;;;-3.87;71.41;101103.41;5089769;28;20619;-71
2022/12/17 16:15:57;;;;;;;36.10;17.50;;;-3.70;99.90;;;-3.89;71.90;101098.28;5091942;28;20204;-71
2022/12/17 16:18:34;;;;;;;38.07;17.37;;;-3.70;99.90;;;-3.89;71.32;101103.31;5092902;28;20204;-72
2022/12/17 16:21:05;;;;;;;38.23;17.70;;;-3.70;99.90;;;-3.96;71.67;101101.19;5098874;28;20212;-74
2022/12/17 16:23:35;;;;;;;44.43;19.57;;;-3.70;99.90;;;-3.94;71.71;101107.22;5089349;28;20243;-72
2022/12/17 16:26:10;;;;;;;38.30;18.00;;;-3.70;99.90;;;-3.91;71.90;101096.44;5097737;28;20204;-73
2022/12/17 16:28:39;;;;;;;37.27;18.00;;;-3.70;99.90;;;-3.86;71.79;101105.19;5092144;28;20204;-73
2022/12/17 16:31:11;;;;;;;33.97;17.43;;;-3.70;99.90;;;-3.85;71.63;101108.56;5092599;28;20207;-71
2022/12/17 16:33:44;;;;;;;35.83;17.40;;;-3.70;99.90;;;-3.88;71.43;101107.59;5096276;28;20280;-73
2022/12/17 16:36:15;;;;;;;35.37;17.97;;;-3.70;99.90;;;-3.88;70.97;101114.25;5102041;28;20205;-71
2022/12/17 16:38:45;;;;;;;38.20;17.47;;;-3.70;99.90;;;-3.94;71.02;101121.41;5087821;28;20281;-73
2022/12/17 16:41:15;;;;;;;36.97;18.07;;;-3.80;99.90;;;-3.99;70.76;101126.16;5092860;28;20204;-70
2022/12/17 16:43:44;;;;;;;35.00;17.90;;;-3.80;99.90;;;-4.03;71.13;101131.78;5093347;28;20282;-72
2022/12/17 16:46:27;;;;;;;34.60;18.40;;;-3.90;99.90;;;-4.04;71.21;101131.69;5087801;28;20250;-71
2022/12/17 16:48:59;;;;;;;33.73;16.73;;;-3.90;99.90;;;-4.06;70.90;101141.66;5092659;28;20679;-71
2022/12/17 16:51:28;;;;;;;37.90;16.20;;;-3.80;99.90;;;-4.11;70.96;101143.00;5096990;28;20253;-73
2022/12/17 16:53:57;;;;;;;34.33;17.57;;;-3.90;99.90;;;-4.16;71.07;101144.34;5090487;28;20242;-70
2022/12/17 16:56:28;;;;;;;31.77;16.93;;;-4.00;99.90;;;-4.19;70.83;101152.59;5096286;28;20253;-74
2022/12/17 16:58:56;;;;;;;33.87;17.47;;;-4.00;99.90;;;-4.26;70.95;101154.59;5090539;28;20209;-71
2022/12/17 17:01:28;;;;;;;36.97;17.73;;;-4.10;99.90;;;-4.31;71.54;101151.75;5087170;28;20583;-72
2022/12/17 17:04:01;;;;;;;36.27;17.10;;;-4.10;99.90;;;-4.34;71.44;101159.13;5089526;28;20244;-70
2022/12/17 17:06:30;;;;;;;33.73;16.37;;;-4.10;99.90;;;-4.34;71.83;101159.13;5098186;28;20454;-72
2022/12/17 17:09:04;;;;;;;36.20;17.03;;;-4.10;99.90;;;-4.34;71.45;101164.16;5087746;28;20238;-72
2022/12/17 17:11:32;;;;;;;32.20;16.17;;;-4.20;99.90;;;-4.37;71.77;101162.31;5087699;28;20292;-72
2022/12/17 17:14:00;;;;;;;37.23;17.83;;;-4.20;99.90;;;-4.35;71.59;101174.09;5095916;28;20302;-71
2022/12/17 17:16:29;;;;;;;34.57;16.80;;;-4.10;99.90;;;-4.37;71.59;101179.03;5097042;28;20644;-71
2022/12/17 17:18:59;;;;;;;32.07;15.47;;;-4.10;99.90;;;-4.38;71.30;101180.69;5093290;28;20226;-68
2022/12/17 17:21:30;;;;;;;31.53;15.97;;;-4.20;99.90;;;-4.45;71.30;101187.72;5089966;28;20223;-68
2022/12/17 17:24:06;;;;;;;35.83;16.53;;;-4.20;99.90;;;-4.51;72.00;101198.25;5100213;28;20283;-71
2022/12/17 17:26:35;;;;;;;30.07;14.70;;;-4.30;99.90;;;-4.53;72.11;101204.78;5099108;28;20239;-71
2022/12/17 17:29:05;;;;;;;32.20;15.37;;;-4.30;99.90;;;-4.59;71.63;101203.53;5104200;28;20667;-72
2022/12/17 17:31:34;;;;;;;26.57;13.20;;;-4.40;99.90;;;-4.61;71.53;101201.75;5086815;28;20723;-71
2022/12/17 17:34:24;;;;;;;25.80;12.83;;;-4.40;99.90;;;-4.66;71.58;101205.63;5092605;28;20280;-72
2022/12/17 17:36:52;;;;;;;26.47;14.03;;;-4.40;99.90;;;-4.68;71.67;101198.72;5085934;28;20273;-72
2022/12/17 17:39:21;;;;;;;24.03;13.57;;;-4.40;99.90;;;-4.72;71.79;101202.69;5093003;28;20208;-71
2022/12/17 17:41:50;;;;;;;24.90;12.87;;;-4.50;99.90;;;-4.75;71.79;101201.59;5093181;28;20215;-71
2022/12/17 17:44:19;;;;;;;23.47;11.50;;;-4.50;99.90;;;-4.76;71.81;101200.72;5101197;28;20228;-71
2022/12/17 17:46:47;;;;;;;24.60;11.23;;;-4.50;99.90;;;-4.78;71.78;101206.44;5089135;28;20250;-72
2022/12/17 17:49:16;;;;;;;24.97;12.77;;;-4.50;99.90;;;-4.79;71.50;101217.25;5085075;28;20201;-72
2022/12/17 17:51:46;;;;;;;25.33;12.23;;;-4.60;99.90;;;-4.86;71.51;101215.94;5090352;28;20412;-72
2022/12/17 17:54:34;;;;;;;24.13;12.23;;;-4.60;99.90;;;-4.89;71.92;101216.63;5087117;28;20568;-70
2022/12/17 17:57:03;;;;;;;24.10;12.73;;;-4.60;99.90;;;-4.87;72.25;101220.09;5093602;28;20224;-74
2022/12/17 17:59:31;;;;;;;23.77;11.53;;;-4.60;99.90;;;-4.88;71.66;101220.88;5087627;28;20289;-74
2022/12/17 18:02:02;;;;;;;22.10;12.30;;;-4.70;99.90;;;-4.94;72.21;101220.44;5088300;28;20220;-75
2022/12/17 18:04:31;;;;;;;29.30;12.90;;;-4.70;99.90;;;-4.95;71.99;101226.25;5090564;28;20799;-73
2022/12/17 18:07:02;;;;;;;29.07;13.40;;;-4.70;99.90;;;-4.94;72.43;101233.00;5088548;28;20208;-76
2022/12/17 18:09:51;;;;;;;25.57;13.17;;;-4.70;99.90;;;-4.96;72.09;101239.59;5099085;28;20230;-70
2022/12/17 18:15:08;;;;;;;26.90;12.43;;;-4.70;99.90;;;-4.98;72.38;101240.25;5122827;28;20302;-72
2022/12/17 18:17:49;;;;;;;20.60;11.37;;;-4.70;99.90;;;-5.02;72.22;101234.13;5105528;28;20627;-71
2022/12/17 18:20:18;;;;;;;23.47;12.20;;;-4.80;99.90;;;-5.02;72.56;101235.78;5106981;28;20204;-71
2022/12/17 18:22:49;;;;;;;24.77;12.40;;;-4.80;99.90;;;-5.01;72.67;101250.06;5086380;28;20235;-69
2022/12/17 18:25:18;;;;;;;27.50;12.10;;;-4.80;99.90;;;-5.00;72.51;101252.72;5088993;28;20266;-71
2022/12/17 18:27:47;;;;;;;22.83;11.50;;;-4.80;99.90;;;-5.00;72.84;101252.72;5090425;28;20274;-72
2022/12/17 18:30:16;;;;;;;20.70;11.03;;;-4.70;99.90;;;-4.99;72.85;101262.00;5097946;28;20213;-71
2022/12/17 18:32:44;;;;;;;21.13;10.50;;;-4.70;99.90;;;-4.97;72.90;101268.00;5090092;28;20222;-72
2022/12/17 18:35:13;;;;;;;24.43;12.27;;;-4.70;99.90;;;-4.94;73.03;101267.31;5095366;28;20684;-72
2022/12/17 18:37:41;;;;;;;24.77;11.53;;;-4.70;99.90;;;-4.92;72.91;101281.75;5087494;28;20644;-72
2022/12/17 18:40:11;;;;;;;24.47;12.47;;;-4.70;99.90;;;-4.93;72.60;101272.47;5088312;28;20244;-72
2022/12/17 18:45:25;;;;;;;21.10;11.40;;;-4.70;99.90;;;-4.89;73.19;101276.09;5088230;28;20704;-71
2022/12/17 18:47:55;;;;;;;22.57;11.80;;;-4.60;99.90;;;-4.87;73.12;101282.94;5095762;28;20209;-71
2022/12/17 18:50:25;;;;;;;27.60;12.03;;;-4.70;99.90;;;-4.84;73.09;101294.00;5092014;28;20236;-71
2022/12/17 18:52:54;;;;;;;22.57;12.00;;;-4.60;99.90;;;-4.86;73.31;101297.28;5091727;28;20219;-72
2022/12/17 18:55:24;;;;;;;20.67;10.87;;;-4.60;99.90;;;-4.81;73.43;101301.75;5089190;28;20226;-71
2022/12/17 18:57:54;;;;;;;23.67;12.10;;;-4.50;99.90;;;-4.78;73.49;101304.50;5076568;28;20290;-71
2022/12/17 19:00:22;;;;;;;27.10;11.97;;;-4.50;99.90;;;-4.73;73.67;101308.19;5085600;28;20303;-73
2022/12/17 19:02:51;;;;;;;23.80;11.53;;;-4.90;99.90;;;-4.71;73.58;101309.19;5075764;28;20208;-72
2022/12/17 19:05:19;;;;;;;19.60;12.07;;;-5.10;99.90;;;-4.68;73.44;101311.88;5083866;28;20878;-71
2022/12/17 19:07:48;;;;;;;23.80;11.43;;;-4.50;99.90;;;-4.67;73.63;101309.50;5092423;28;20257;-72
2022/12/17 19:10:16;;;;;;;21.97;11.27;;;-4.50;99.90;;;-4.66;73.61;101300.31;5086448;28;20244;-71
2022/12/17 19:12:46;;;;;;;24.33;11.67;;;-4.40;99.90;;;-4.63;73.48;101313.97;5092428;28;20668;-71
2022/12/17 19:15:14;;;;;;;21.83;11.37;;;-4.40;99.90;;;-4.60;73.56;101315.81;5092193;28;20216;-72
2022/12/17 19:17:43;;;;;;;17.87;10.00;;;-4.40;99.90;;;-4.57;73.54;101320.16;5095685;28;20204;-72
2022/12/17 19:20:12;;;;;;;19.00;10.40;;;-4.40;99.90;;;-4.56;73.72;101317.78;5090138;28;20205;-72
2022/12/17 19:22:42;;;;;;;20.13;11.77;;;-4.40;99.90;;;-4.54;73.66;101313.72;5085069;28;20266;-71
2022/12/17 19:25:11;;;;;;;25.57;11.60;;;-4.30;99.90;;;-4.51;73.23;101313.94;5091894;28;20221;-72
2022/12/17 19:27:39;;;;;;;21.17;11.70;;;-4.30;99.90;;;-4.47;73.75;101320.06;5085870;28;20201;-74
2022/12/17 19:30:13;;;;;;;24.97;11.47;;;-4.30;99.90;;;-4.46;73.81;101319.28;5090142;28;20206;-73
2022/12/17 19:32:41;;;;;;;26.57;13.03;;;-4.20;99.90;;;-4.45;73.56;101329.47;5087351;28;20684;-71
2022/12/17 19:35:10;;;;;;;22.30;11.10;;;-4.20;99.90;;;-4.43;73.86;101329.56;5085758;28;20201;-74
2022/12/17 19:37:38;;;;;;;20.90;12.03;;;-4.20;99.90;;;-4.40;74.02;101333.16;5090611;28;20208;-70
2022/12/17 19:40:08;;;;;;;28.43;12.97;;;-4.20;99.90;;;-4.35;73.69;101335.97;5088685;28;20231;-71
2022/12/17 19:42:36;;;;;;;25.30;13.33;;;-4.20;99.90;;;-4.34;73.79;101332.72;5083586;28;20660;-70
2022/12/17 19:45:06;;;;;;;30.57;13.60;;;-4.10;99.90;;;-4.29;73.80;101335.53;5085852;28;20200;-73
2022/12/17 19:47:36;;;;;;;22.90;11.50;;;-4.10;99.90;;;-4.30;74.07;101346.38;5086170;28;20209;-73
2022/12/17 19:50:05;;;;;;;26.30;13.00;;;-4.10;99.90;;;-4.29;73.74;101348.13;5089333;28;20240;-73
2022/12/17 19:52:34;;;;;;;22.40;12.77;;;-4.10;99.90;;;-4.29;73.64;101354.03;5084888;28;20204;-73
2022/12/17 19:55:02;;;;;;;23.67;11.50;;;-4.10;99.90;;;-4.29;74.16;101355.66;5086615;28;20323;-72
2022/12/17 19:57:31;;;;;;;24.70;12.60;;;-4.10;99.90;;;-4.32;73.89;101352.94;5092198;28;20247;-73
2022/12/17 19:59:59;;;;;;;24.90;13.33;;;-4.10;99.90;;;-4.29;74.07;101358.19;5089157;28;20370;-72
2022/12/17 20:02:28;;;;;;;24.03;12.60;;;-4.10;99.90;;;-4.26;74.09;101363.44;5086397;28;20605;-72
2022/12/17 20:05:05;;;;;;;22.67;12.47;;;-4.10;99.90;;;-4.24;73.93;101364.41;5090567;28;20196;-72
2022/12/17 20:07:37;;;;;;;28.83;13.17;;;-4.10;99.90;;;-4.20;73.88;101363.84;5088992;28;20299;-72
2022/12/17 20:10:06;;;;;;;24.47;13.60;;;-4.00;99.90;;;-4.17;74.03;101369.94;5086991;28;20232;-72
2022/12/17 20:12:35;;;;;;;27.10;13.33;;;-4.00;99.90;;;-4.16;74.13;101361.66;5080260;28;20709;-72
2022/12/17 20:15:03;;;;;;;26.47;14.00;;;-4.00;99.90;;;-4.15;74.04;101375.09;5098057;28;20204;-71
2022/12/17 20:17:31;;;;;;;28.60;13.93;;;-4.00;99.90;;;-4.18;73.97;101367.34;5092252;28;20581;-71
2022/12/17 20:20:00;;;;;;;29.80;14.67;;;-4.00;99.90;;;-4.19;74.00;101370.63;5082137;28;20205;-69
2022/12/17 20:22:29;;;;;;;29.90;14.10;;;-4.00;99.90;;;-4.21;74.01;101362.97;5090853;28;20733;-70
2022/12/17 20:25:00;;;;;;;27.23;14.43;;;-4.00;99.90;;;-4.21;74.19;101365.47;5088800;28;20257;-72
2022/12/17 20:27:28;;;;;;;30.33;14.77;;;-4.00;99.90;;;-4.20;74.16;101378.94;5084208;28;20259;-71
2022/12/17 20:29:57;;;;;;;31.30;14.87;;;-4.00;99.90;;;-4.19;73.76;101385.75;5089167;28;20739;-70
2022/12/17 20:32:25;;;;;;;24.93;14.33;;;-4.00;99.90;;;-4.20;74.44;101386.47;5088541;28;20243;-70
2022/12/17 20:34:53;;;;;;;27.63;15.13;;;-4.00;99.90;;;-4.19;74.42;101380.69;5083033;28;20287;-70
2022/12/17 20:37:21;;;;;;;27.43;14.47;;;-4.00;99.90;;;-4.17;74.31;101397.63;5081416;28;20233;-72
2022/12/17 20:39:51;;;;;;;27.10;15.13;;;-4.00;99.90;;;-4.19;74.60;101391.63;5087320;28;20220;-71
2022/12/17 20:42:19;;;;;;;28.73;15.90;;;-4.00;99.90;;;-4.17;74.55;101392.59;5085792;28;20335;-71
2022/12/17 20:44:48;;;;;;;28.43;15.33;;;-4.00;99.90;;;-4.15;74.56;101397.75;5087991;28;20258;-72
2022/12/17 20:47:20;;;;;;;26.10;14.53;;;-4.00;99.90;;;-4.14;74.56;101402.00;5080269;28;20301;-70
2022/12/17 20:49:49;;;;;;;31.63;15.97;;;-3.90;99.90;;;-4.11;74.92;101406.41;5084516;28;20208;-71
2022/12/17 20:52:17;;;;;;;28.23;14.23;;;-3.90;99.90;;;-4.15;74.44;101403.66;5084053;28;20216;-72
2022/12/17 20:54:45;;;;;;;25.60;14.63;;;-3.90;99.90;;;-4.15;74.59;101413.72;5091274;28;20208;-69
2022/12/17 20:57:15;;;;;;;20.87;12.33;;;-3.90;99.90;;;-4.16;74.88;101418.63;5097436;28;20298;-71
2022/12/17 20:59:43;;;;;;;23.33;13.53;;;-3.90;99.90;;;-4.19;74.76;101418.44;5095839;28;20555;-70
2022/12/17 21:02:12;;;;;;;30.17;14.77;;;-3.90;99.90;;;-4.22;74.74;101423.25;5094888;28;20237;-69
2022/12/17 21:04:40;;;;;;;22.37;13.47;;;-4.00;99.90;;;-4.26;74.97;101418.78;5091141;28;20263;-71
2022/12/17 21:07:08;;;;;;;23.43;13.03;;;-4.00;99.90;;;-4.22;75.42;101439.22;5083900;28;20271;-73
2022/12/17 21:09:37;;;;;;;29.17;14.43;;;-4.00;99.90;;;-4.22;75.35;101440.88;5083603;28;20204;-71
2022/12/17 21:12:06;;;;;;;23.50;13.93;;;-4.00;99.90;;;-4.22;75.12;101449.28;5084893;28;20217;-72
2022/12/17 21:14:35;;;;;;;24.10;13.77;;;-4.00;99.90;;;-4.20;75.17;101454.44;5085974;28;20200;-72
2022/12/17 21:17:04;;;;;;;26.13;14.10;;;-4.00;99.90;;;-4.24;74.95;101444.91;5081607;28;20224;-72
2022/12/17 21:19:32;;;;;;;23.40;13.27;;;-4.00;99.90;;;-4.25;75.24;101444.03;5086723;28;20211;-72
2022/12/17 21:22:01;;;;;;;25.33;14.07;;;-4.00;99.90;;;-4.23;75.02;101447.56;5084402;28;20294;-71
2022/12/17 21:24:29;;;;;;;25.00;13.80;;;-4.00;99.90;;;-4.23;75.49;101445.03;5077361;28;20577;-69
2022/12/17 21:26:57;;;;;;;24.27;13.80;;;-4.00;99.90;;;-4.26;75.01;101439.78;5082074;28;20563;-71
2022/12/17 21:29:26;;;;;;;22.33;13.27;;;-4.00;99.90;;;-4.22;75.09;101456.84;5085098;28;20654;-71
2022/12/17 21:31:56;;;;;;;27.47;13.67;;;-4.00;99.90;;;-4.24;75.34;101463.41;5085209;28;20669;-73
2022/12/17 21:34:27;;;;;;;23.73;12.77;;;-4.00;99.90;;;-4.27;74.95;101458.19;5081437;28;20205;-71
2022/12/17 21:36:56;;;;;;;23.20;13.40;;;-4.00;99.90;;;-4.27;74.92;101462.31;5077399;28;20204;-72
2022/12/17 21:39:24;;;;;;;22.63;13.93;;;-4.00;99.90;;;-4.24;74.94;101468.44;5087570;28;20661;-73
2022/12/17 21:44:39;;;;;;;19.57;12.03;;;-4.00;99.90;;;-4.22;75.22;101474.47;5088367;28;20217;-71
2022/12/17 21:47:09;;;;;;;23.83;13.67;;;-4.00;99.90;;;-4.23;74.70;101475.25;5088124;28;20236;-73
2022/12/17 21:49:37;;;;;;;20.00;12.30;;;-4.00;99.90;;;-4.22;74.82;101482.00;5089037;28;20265;-72
2022/12/17 21:52:06;;;;;;;23.73;13.03;;;-4.00;99.90;;;-4.26;74.46;101476.66;5091433;28;20684;-73
2022/12/17 21:54:38;;;;;;;21.83;12.10;;;-4.00;99.90;;;-4.29;74.46;101478.94;5085440;28;20232;-72
2022/12/17 21:57:07;;;;;;;21.23;12.03;;;-4.00;99.90;;;-4.31;74.54;101470.41;5086969;28;20213;-72
2022/12/17 21:59:35;;;;;;;21.43;11.90;;;-4.10;99.90;;;-4.33;74.84;101471.97;5088590;28;20254;-71
2022/12/17 22:02:04;;;;;;;21.60;12.83;;;-4.10;99.90;;;-4.35;74.30;101470.97;5087776;28;20231;-71
2022/12/17 22:04:34;;;;;;;21.67;11.13;;;-4.10;99.90;;;-4.33;74.73;101475.34;5083792;28;20233;-73
2022/12/17 22:07:03;;;;;;;20.63;12.23;;;-4.10;99.90;;;-4.32;74.83;101483.75;5085649;28;20567;-73
2022/12/17 22:09:45;;;;;;;20.23;12.30;;;-4.00;99.90;;;-4.34;74.95;101481.16;5084839;28;20196;-73
2022/12/17 22:15:20;;;;;;;19.90;11.90;;;-4.10;99.90;;;-4.34;74.83;101486.19;5088540;28;20646;-73
2022/12/17 22:17:52;;;;;;;19.40;11.57;;;-4.10;99.90;;;-4.35;74.83;101496.13;5078039;28;20196;-71
2022/12/17 22:20:23;;;;;;;22.20;12.77;;;-4.10;99.90;;;-4.36;74.73;101497.75;5080505;28;20293;-72
2022/12/17 22:22:52;;;;;;;26.00;15.03;;;-4.10;99.90;;;-4.30;74.68;101499.84;5093768;28;20240;-71
2022/12/17 22:25:20;;;;;;;22.87;12.80;;;-4.10;99.90;;;-4.28;74.65;101500.81;5095040;28;20258;-72
2022/12/17 22:27:49;;;;;;;20.27;12.00;;;-4.10;99.90;;;-4.25;74.81;101493.50;5090903;28;20817;-71
2022/12/17 22:33:14;;;;;;;20.67;11.70;;;-4.00;99.90;;;-4.20;74.74;101519.84;5039447;28;20213;-72
2022/12/17 22:36:04;;;;;;;19.97;12.23;;;-4.00;99.90;;;-4.21;74.54;101518.97;5076036;28;20216;-72
2022/12/17 22:38:52;;;;;;;21.50;12.60;;;-4.00;99.90;;;-4.21;74.59;101526.53;5084150;28;20205;-70
2022/12/17 22:44:47;;;;;;;20.27;11.97;;;-3.90;99.90;;;-4.16;74.44;101534.41;5088637;28;20196;-72
2022/12/17 22:47:21;;;;;;;20.20;12.00;;;-3.90;99.90;;;-4.14;74.71;101535.41;5090230;28;20228;-71
2022/12/17 22:49:49;;;;;;;20.23;11.77;;;-3.90;99.90;;;-4.12;74.50;101538.91;5097588;28;20271;-72
2022/12/17 22:52:20;;;;;;;22.73;11.83;;;-3.90;99.90;;;-4.07;74.70;101551.81;5083497;28;20220;-73
2022/12/17 22:54:48;;;;;;;22.00;12.63;;;-3.90;99.90;;;-4.05;74.20;101551.19;5091407;28;20211;-71
2022/12/17 22:57:17;;;;;;;22.43;13.37;;;-3.80;99.90;;;-4.04;74.45;101547.00;5091165;28;20204;-72
2022/12/17 23:00:11;;;;;;;21.33;13.03;;;-3.80;99.90;;;-4.07;74.22;101555.22;5099760;28;20250;-74
2022/12/17 23:02:39;;;;;;;22.73;12.57;;;-3.80;99.90;;;-4.06;74.53;101558.59;5082730;28;20699;-72
2022/12/17 23:05:08;;;;;;;24.97;13.27;;;-3.80;99.90;;;-4.08;74.68;101550.06;5103659;28;20231;-73
2022/12/17 23:07:38;;;;;;;24.73;12.83;;;-3.80;99.90;;;-4.04;74.75;101557.94;5091780;28;20219;-73
2022/12/17 23:10:07;;;;;;;22.93;13.20;;;-3.80;99.90;;;-4.00;74.75;101559.91;5083419;28;20207;-72
2022/12/17 23:12:51;;;;;;;20.47;12.70;;;-3.80;99.90;;;-3.99;74.68;101551.59;5093059;28;20242;-75
2022/12/17 23:15:28;;;;;;;25.80;14.10;;;-3.80;99.90;;;-3.98;74.63;101550.81;5117733;27;20211;-76
2022/12/17 23:17:59;;;;;;;24.93;13.90;;;-3.80;99.90;;;-3.98;74.33;101548.28;5082621;28;20224;-72
2022/12/17 23:20:30;;;;;;;26.23;15.33;;;-3.80;99.90;;;-3.98;74.54;101542.38;5093087;28;20632;-74
2022/12/17 23:23:00;;;;;;;21.53;13.77;;;-3.70;99.90;;;-3.97;74.71;101541.66;5093626;28;20259;-76
2022/12/17 23:25:29;;;;;;;25.33;14.03;;;-3.80;99.90;;;-3.98;74.59;101538.22;5098504;28;20729;-75
2022/12/17 23:27:58;;;;;;;22.70;13.97;;;-3.80;99.90;;;-3.98;74.19;101538.22;5087498;28;20673;-75
2022/12/17 23:30:26;;;;;;;23.80;13.47;;;-3.70;99.90;;;-3.96;74.18;101540.88;5099545;28;20232;-74
2022/12/17 23:32:55;;;;;;;22.97;13.43;;;-3.70;99.90;;;-4.02;74.09;101543.81;5091247;28;20189;-74
2022/12/17 23:35:23;;;;;;;22.43;13.00;;;-3.80;99.90;;;-4.01;74.28;101553.13;5091678;28;20200;-73
2022/12/17 23:37:52;;;;;;;24.87;13.73;;;-3.80;99.90;;;-3.99;74.09;101558.28;5090513;28;20212;-74
2022/12/17 23:40:22;;;;;;;21.13;12.50;;;-3.80;99.90;;;-4.01;74.00;101568.25;5087805;28;20267;-73
2022/12/17 23:42:50;;;;;;;21.50;12.47;;;-3.80;99.90;;;-4.03;73.75;101567.25;5090201;28;20257;-73
2022/12/17 23:45:19;;;;;;;21.27;12.67;;;-3.80;99.90;;;-4.04;73.52;101573.06;5080943;28;20209;-73
2022/12/17 23:47:47;;;;;;;21.03;12.40;;;-3.80;99.90;;;-4.01;73.96;101578.31;5085522;28;20216;-72